Nearby METAR (Airport) Reports

 

KPRN - Greenville, Alabama, USA
Distance from station: WNW 17mi, 28km
Updated: Sun, 17-Feb-2019 7:56pm CST
Mostly cloudy
Mostly cloudy
 Wind from SSW
Wind: SSW 6 mph , 9 km/h
Temperature: 72°F , 22°C
Dew Point: 64°F , 18°C
Humidity: 78%
Barometer: 29.86 inHg , 1011.2 hPa
Clouds: Mostly cloudy
Visibility: 10 miles , 16 km
Cloud details: Partly cloudy 2500 ft
Mostly cloudy 3100 ft
Mostly cloudy 3800 ft
2019/02/18 01:56 KPRN 180156Z AUTO 20005KT 10SM SCT025 BKN031 BKN038 22/18 A2986 RMK AO2 SLP106 T02220178 $
KTOI - Troy, Alabama, USA
Distance from station: ENE 21mi, 34km
Updated: Sun, 17-Feb-2019 7:53pm CST
Clear
Clear
 Wind from SSW
Wind: SSW 9 mph , 15 km/h
Temperature: 72°F , 22°C
Dew Point: 66°F , 19°C
Humidity: 83%
Barometer: 29.88 inHg , 1011.9 hPa
Clouds: Clear
Visibility: 10 miles , 16 km
2019/02/18 01:53 KTOI 180153Z AUTO 20008KT 10SM CLR 22/19 A2988 RMK AO2 SLP113 T02170194
K79J - Andalusia/Opp Ar, Alabama, USA
Distance from station: S 29mi, 47km
Updated: Sun, 17-Feb-2019 7:56pm CST
Clear
Clear
 Wind from SSW
Wind: SSW 5 mph , 7 km/h
Temperature: 73°F , 23°C
Dew Point: 68°F , 20°C
Humidity: 83%
Barometer: 29.88 inHg , 1011.9 hPa
Clouds: Clear
Visibility: 10 miles , 16 km
2019/02/18 01:56 K79J 180156Z AUTO 20004KT 10SM CLR 23/20 A2988 RMK AO2 SLP114 T02280200
 
KMGM - Montgomery, Alabama, USA
Distance from station: N 39mi, 63km
Updated: Sun, 17-Feb-2019 7:53pm CST
Clear
Clear
 Wind from S
Wind: S 9 mph , 15 km/h
Temperature: 72°F , 22°C
Dew Point: 64°F , 18°C
Humidity: 78%
Barometer: 29.84 inHg , 1010.5 hPa
Clouds: Clear
Visibility: 10 miles , 16 km
2019/02/18 01:53 KMGM 180153Z 19008KT 10SM CLR 22/18 A2984 RMK AO2 SLP101 T02220183
KMXF - Maxwell Afb/Mgm, Alabama, USA
Distance from station: N 44mi, 70km
Updated: Sun, 17-Feb-2019 7:56pm CST
Few Clouds
Few Clouds
 Wind from SSW
Wind: SSW 6 mph , 9 km/h
Temperature: 72°F , 22°C
Dew Point: 64°F , 18°C
Humidity: 78%
Barometer: 29.83 inHg , 1010.2 hPa
Clouds: Few Clouds
Visibility: 10 miles , 16 km
Cloud details: Few Clouds 7000 ft
2019/02/18 01:56 KMXF 180156Z AUTO 21005KT 10SM FEW070 22/18 A2983 RMK AO2 SLP103 T02220182 $
KLOR - Lowe Ahp/Ft. Ruc, Alabama, USA
Distance from station: SE 44mi, 71km
Updated: Sun, 17-Feb-2019 7:58pm CST
Overcast
Overcast
 Wind from S
Wind: S 7 mph , 11 km/h
Temperature: 70°F , 21°C
Dew Point: 70°F , 21°C
Humidity: 100%
Barometer: 29.89 inHg , 1012.2 hPa
Clouds: Overcast
Visibility: 10 miles , 16 km
Cloud details: Mostly cloudy 900 ft
Mostly cloudy 1700 ft
Mostly cloudy 2400 ft
Overcast 6000 ft
2019/02/18 01:58 KLOR 180158Z AUTO 19006KT 10SM BKN009 BKN017 BKN024 OVC060 21/21 A2989 RMK AO2 CIG 009V017 BKN009 V SCT SLP104 T02110206
 
KGZH - Evergreen, Alabama, USA
Distance from station: WSW 46mi, 75km
Updated: Sun, 17-Feb-2019 7:53pm CST
Mostly cloudy
Mostly cloudy
 Wind from SW
Wind: SW 9 mph , 15 km/h
Temperature: 75°F , 24°C
Dew Point: 64°F , 18°C
Humidity: 69%
Barometer: 29.87 inHg , 1011.5 hPa
Clouds: Mostly cloudy
Visibility: 10 miles , 16 km
Cloud details: Few Clouds 2200 ft
Mostly cloudy 4000 ft
Mostly cloudy 4800 ft
2019/02/18 01:53 KGZH 180153Z AUTO 22008KT 10SM FEW022 BKN040 BKN048 24/18 A2987 RMK AO2 SLP113 T02390183
K0J4 - Florala Muni, Alabama, USA
Distance from station: S 47mi, 76km
Updated: Sun, 17-Feb-2019 7:58pm CST
Mostly cloudy
Mostly cloudy
 Wind from SSW
Wind: SSW 12 mph , 19 km/h
Temperature: 70°F , 21°C
Dew Point: 66°F , 19°C
Humidity: 88%
Barometer: 29.91 inHg , 1012.9 hPa
Clouds: Mostly cloudy
Visibility: 10 miles , 16 km
Cloud details: Mostly cloudy 700 ft
2019/02/18 01:58 K0J4 180158Z AUTO 20010KT 10SM BKN007 21/19 A2991 RMK AO2 SLP125 T02110194
KOZR - Ozark/Cairns Aaf, Alabama, USA
Distance from station: SE 49mi, 78km
Updated: Sun, 17-Feb-2019 8:06pm CST
Overcast
Overcast
 Wind from SSW
Wind: SSW 9 mph , 15 km/h
Temperature: 70°F , 21°C
Dew Point: 70°F , 21°C
Humidity: 100%
Barometer: 29.89 inHg , 1012.2 hPa
Clouds: Overcast
Visibility: 10 miles , 16 km
Cloud details: Overcast 700 ft
2019/02/18 02:06 KOZR 180206Z AUTO 20008KT 10SM OVC007 21/21 A2989 RMK AO2 SLP122
 
KHEY - Ft Rucker/Hanche, Alabama, USA
Distance from station: ESE 49mi, 79km
Updated: Sun, 17-Feb-2019 7:58pm CST
Overcast
Overcast
 Wind from SW
Wind: SW 6 mph , 9 km/h
Temperature: 70°F , 21°C
Dew Point: 70°F , 21°C
Humidity: 100%
Barometer: 29.88 inHg , 1011.9 hPa
Clouds: Overcast
Visibility: 9 miles , 14 km
Cloud details: Overcast 700 ft
2019/02/18 01:58 KHEY 180158Z AUTO 23005KT 9SM OVC007 21/21 A2988 RMK AO2 RAB07E18 OVC V BKN SLP119 P0000 T02110211
KDHN - Dothan, Alabama, USA
Distance from station: ESE 61mi, 97km
Updated: Sun, 17-Feb-2019 8:03pm CST
Light rain, Overcast
Light rain, Overcast
 Wind from SSW
Wind: SSW 13 mph , 20 km/h
Temperature: 72°F , 22°C
Dew Point: 68°F , 20°C
Humidity: 88%
Barometer: 29.93 inHg , 1013.5 hPa
Summary: Light rain
Clouds: Overcast
Visibility: 9 miles , 14 km
Cloud details: Mostly cloudy 800 ft
Overcast 1400 ft
2019/02/18 02:03 KDHN 180203Z AUTO 20011KT 9SM -RA BKN008 OVC014 22/20 A2993 RMK AO2 P0000 T02170200
KCEW - Crestview, Florida, USA
Distance from station: S 66mi, 107km
Updated: Sun, 17-Feb-2019 7:53pm CST
Mist, Overcast
Mist, Overcast
 Wind from S
Wind: S 8 mph , 13 km/h
Temperature: 70°F , 21°C
Dew Point: 68°F , 20°C
Humidity: 94%
Barometer: 29.91 inHg , 1012.9 hPa
Summary: Mist
Clouds: Overcast
Visibility: 5 miles , 8 km
Cloud details: Overcast 300 ft
2019/02/18 01:53 KCEW 180153Z AUTO 19007KT 5SM BR OVC003 21/20 A2991 RMK AO2 SLP125 T02110200 $
 
KEUF - Eufaula, Alabama, USA
Distance from station: ENE 73mi, 118km
Updated: Sun, 17-Feb-2019 7:58pm CST
Few Clouds
Few Clouds
 Wind from SSW
Wind: SSW 6 mph , 9 km/h
Temperature: 72°F , 22°C
Dew Point: 68°F , 20°C
Humidity: 88%
Barometer: 29.86 inHg , 1011.2 hPa
Clouds: Few Clouds
Visibility: 10 miles , 16 km
Cloud details: Few Clouds 1200 ft
Few Clouds 2700 ft
2019/02/18 01:58 KEUF 180158Z AUTO 21005KT 10SM FEW012 FEW027 22/20 A2986 RMK AO2 SLP110 T02170200
KJKA - Gulf Shores, Alabama, USA
Distance from station: SSW 132mi, 212km
Updated: Sun, 17-Feb-2019 8:15pm CST
Haze, Overcast
Haze, Overcast
 Wind from SE
Wind: SE 7 mph , 11 km/h
Barometer: 29.89 inHg , 1012.2 hPa
Summary: Haze
Clouds: Overcast
Visibility: 5 miles , 8 km
Cloud details: Partly cloudy 300 ft
Partly cloudy 900 ft
Overcast 3000 ft
2019/02/18 02:15 KJKA 180215Z 13006KT 5SM HZ SCT003 SCT009 OVC030 A2989 RMK AO2
KLSF - Ft Benning/Colum, Georgia, USA
Distance from station: SNE 89mi, 143km
Updated: Sun, 17-Feb-2019 7:56pm CST
Partly cloudy
Partly cloudy
 Wind from S
Wind: S 10 mph , 17 km/h
Temperature: 72°F , 22°C
Dew Point: 72°F , 22°C
Humidity: 100%
Barometer: 29.85 inHg , 1010.8 hPa
Clouds: Partly cloudy
Visibility: 10 miles , 16 km
Cloud details: Few Clouds 2800 ft
Partly cloudy 6000 ft
2019/02/18 01:56 KLSF 180156Z AUTO 18009KT 10SM FEW028 SCT060 22/22 A2985 RMK AO2 SLP112 T02170215
 
KMOB - Mobile/Bates, Alabama, USA
Distance from station: SW 125mi, 202km
Updated: Sun, 17-Feb-2019 7:56pm CST
Overcast
Overcast
 Wind from SSW
Wind: SSW 7 mph , 11 km/h
Temperature: 72°F , 22°C
Dew Point: 68°F , 20°C
Humidity: 88%
Barometer: 29.88 inHg , 1011.9 hPa
Clouds: Overcast
Visibility: 10 miles , 16 km
Cloud details: Mostly cloudy 900 ft
Overcast 4000 ft
2019/02/18 01:56 KMOB 180156Z 21006KT 10SM BKN009 OVC040 22/20 A2988 RMK AO2 SLP116 T02170200
KNMM - Meridian Nas, Mississippi, USA
Distance from station: WNW 151mi, 243km
Updated: Sun, 17-Feb-2019 7:56pm CST
Overcast
Overcast
 Wind from N
Wind: N 12 mph , 19 km/h
Temperature: 54°F , 12°C
Dew Point: 52°F , 11°C
Humidity: 94%
Barometer: 29.95 inHg , 1014.2 hPa
Clouds: Overcast
Visibility: 10 miles , 16 km
Cloud details: Mostly cloudy 700 ft
Mostly cloudy 1100 ft
Overcast 3700 ft
2019/02/18 01:56 KNMM 180156Z 35010KT 10SM BKN007 BKN011 OVC037 12/11 A2995 RMK AO2 RAE08 CIG 005V009 SLP151 P0000 T01220111 $
KQHY - Hurlbert (Ft Walton Bch), Florida, USA
Distance from station: S 94mi, 151km
Updated: Wed, 13-Feb-2019 8:56am CST
NOT Current
Clear
Clear
 Wind from NNE
Wind: NNE 7 mph , 11 km/h
Temperature: 50°F , 10°C
Wind Chill: 47°F , 8°C
Dew Point: 30°F , -1°C
Humidity: 47%
Barometer: 30.29 inHg , 1025.7 hPa
Clouds: Clear
Visibility: 10 miles , 16 km
2019/02/13 14:56 KQHY 131456Z AUTO 02006KT 10SM CLR 10/M01 A3029 RMK AO2 SLP264 T01011006 52010 $
 
KTCL - Tuscaloosa, Alabama, USA
Distance from station: NNW 129mi, 207km
Updated: Sun, 17-Feb-2019 7:53pm CST
Light rain, Mist, Overcast
Light rain, Mist, Overcast
 Wind from NNW
Wind: NNW 7 mph , 11 km/h
Temperature: 55°F , 13°C
Dew Point: 52°F , 11°C
Humidity: 88%
Barometer: 29.94 inHg , 1013.9 hPa
Summary: Light rain, Mist
Clouds: Overcast
Visibility: 6 miles , 10 km
Cloud details: Few Clouds 1000 ft
Overcast 4500 ft
2019/02/18 01:53 KTCL 180153Z AUTO 34006KT 6SM -RA BR FEW010 OVC045 13/11 A2994 RMK AO2 RAB0059 SLP136 P0002 T01280106
KECP - Panama City, Florida, USA
Distance from station: SSE 122mi, 196km
Updated: Sun, 17-Feb-2019 8:04pm CST
Light rain, Overcast
Light rain, Overcast
 Wind from SSE
Wind: SSE 6 mph , 9 km/h
Temperature: 70°F , 21°C
Dew Point: 68°F , 20°C
Humidity: 94%
Barometer: 29.91 inHg , 1012.9 hPa
Summary: Light rain
Clouds: Overcast
Visibility: 7 miles , 11 km
Cloud details: Mostly cloudy 500 ft
Overcast 1200 ft
2019/02/18 02:04 KECP 180204Z 15005KT 7SM -RA BKN005 OVC012 21/20 A2991 RMK AO2 P0000 T02060200
KCBM - Columbus Afb, Mississippi, USA
Distance from station: NW 175mi, 282km
Updated: Sun, 17-Feb-2019 7:56pm CST
Overcast
Overcast
 Wind from N
Wind: N 6 mph , 9 km/h
Temperature: 46°F , 8°C
Wind Chill: 43°F , 6°C
Dew Point: 45°F , 7°C
Humidity: 93%
Barometer: 29.95 inHg , 1014.2 hPa
Clouds: Overcast
Visibility: 10 miles , 16 km
Cloud details: Overcast 500 ft
2019/02/18 01:56 KCBM 180156Z AUTO 35005KT 10SM OVC005 08/07 A2995 RMK AO2 RAE48 SLP145 P0002 T00840072 $
 
KBHM - Birmingham, Alabama, USA
Distance from station: N 132mi, 212km
Updated: Sun, 17-Feb-2019 8:19pm CST
Overcast
Overcast
 Wind from WNW
Wind: WNW 10 mph , 17 km/h
Temperature: 55°F , 13°C
Dew Point: 52°F , 11°C
Humidity: 88%
Barometer: 29.94 inHg , 1013.9 hPa
Clouds: Overcast
Visibility: 10 miles , 16 km
Cloud details: Mostly cloudy 900 ft
Overcast 1800 ft
2019/02/18 02:19 KBHM 180219Z 30009KT 10SM BKN009 OVC018 13/11 A2994 RMK AO2 CIG 007V014 T01280111
KAAF - Apalachicola, Florida, USA
Distance from station: SSE 156mi, 250km
Updated: Sun, 17-Feb-2019 8:09pm CST
Fog, Overcast
Fog, Overcast
 Wind from S
Wind: S 12 mph , 19 km/h
Temperature: 66°F , 19°C
Dew Point: 66°F , 19°C
Humidity: 100%
Barometer: 29.94 inHg , 1013.9 hPa
Summary: Fog
Clouds: Overcast
Visibility: 1/4 mile , 0.4 km
Cloud details: Overcast 200 ft
2019/02/18 02:09 KAAF 180209Z AUTO 17010KT 1/4SM FG VV002 19/19 A2994 RMK AO2 T01940189
KATL - Atlanta, Georgia, USA
Distance from station: NE 177mi, 287km
Updated: Sun, 17-Feb-2019 8:08pm CST
Light rain, Fog, Overcast
Light rain, Fog, Overcast
 Wind from varies
Wind: varies 5 mph , 7 km/h
Temperature: 48°F , 9°C
Wind Chill: 46°F , 8°C
Dew Point: 48°F , 9°C
Humidity: 100%
Barometer: 29.85 inHg , 1010.8 hPa
Summary: Light rain, Fog
Clouds: Overcast
Visibility: 1/4 mile , 0.4 km
Cloud details: Overcast 200 ft
2019/02/18 02:08 KATL 180208Z VRB04KT 1/4SM R09R/1600V2000FT -RA FG VV002 09/09 A2985 RMK AO2 DZE03RAB03 P0000 T00940089
 
KGPT - Gulfport, Mississippi, USA
Distance from station: SW 192mi, 309km
Updated: Sun, 17-Feb-2019 7:53pm CST
Overcast
Overcast
 Wind from SSW
Wind: SSW 5 mph , 7 km/h
Temperature: 70°F , 21°C
Dew Point: 66°F , 19°C
Humidity: 88%
Barometer: 29.85 inHg , 1010.8 hPa
Clouds: Overcast
Visibility: 7 miles , 11 km
Cloud details: Mostly cloudy 500 ft
Overcast 1900 ft
2019/02/18 01:53 KGPT 180153Z 20004KT 7SM BKN005 OVC019 21/19 A2985 RMK AO2 SLP109 T02060194
KNEW - New Orleans/Lake, Louisiana, USA
Distance from station: SW 255mi, 410km
Updated: Sun, 17-Feb-2019 8:12pm CST
Mist, Overcast
Mist, Overcast
 Wind from WNW
Wind: WNW 9 mph , 15 km/h
Temperature: 70°F , 21°C
Dew Point: 66°F , 19°C
Humidity: 88%
Barometer: 29.86 inHg , 1011.2 hPa
Summary: Mist
Clouds: Overcast
Visibility: 6 miles , 10 km
Cloud details: Mostly cloudy 1400 ft
Mostly cloudy 2300 ft
Overcast 3700 ft
2019/02/18 02:12 KNEW 180212Z 30008KT 6SM BR BKN014 BKN023 OVC037 21/19 A2986 RMK AO2 T02060189
KP92 - Salt Point, Louisiana, USA
Distance from station: SW 347mi, 559km
Updated: Sun, 17-Feb-2019 7:53pm CST

 Wind from N
Wind: N 7 mph , 11 km/h, Gust: 18 mph , 30 km/h
Barometer: 29.85 inHg , 1010.8 hPa
2019/02/18 01:53 KP92 180153Z AUTO 01006G16KT A2985 RMK AO1 SLP109 $